createdAt,value
2023-12-28T00:00:08.369Z,9.46
2023-12-28T00:02:36.825Z,9.48
2023-12-28T00:05:05.939Z,9.48
2023-12-28T00:07:34.252Z,9.47
2023-12-28T00:10:04.421Z,9.48
2023-12-28T00:12:34.446Z,9.48
2023-12-28T00:15:02.769Z,9.49
2023-12-28T00:17:31.211Z,9.49
2023-12-28T00:19:59.534Z,9.50
2023-12-28T00:22:27.883Z,9.51
2023-12-28T00:24:56.453Z,9.52
2023-12-28T00:27:26.076Z,9.52
2023-12-28T00:29:54.490Z,9.54
2023-12-28T00:32:22.773Z,9.54
2023-12-28T00:34:51.119Z,9.56
2023-12-28T00:37:19.554Z,9.56
2023-12-28T00:39:48.247Z,9.59
2023-12-28T00:42:16.691Z,9.60
2023-12-28T00:44:46.316Z,9.64
2023-12-28T00:47:14.653Z,9.68
2023-12-28T00:49:43.031Z,9.72
2023-12-28T00:52:11.408Z,9.75
2023-12-28T00:54:39.682Z,9.79
2023-12-28T00:57:07.978Z,9.82
2023-12-28T00:59:36.582Z,9.83
2023-12-28T01:02:06.375Z,9.88
2023-12-28T01:04:34.826Z,9.90
2023-12-28T01:07:06.847Z,9.94
2023-12-28T01:09:35.225Z,9.95
2023-12-28T01:12:06.239Z,9.97
2023-12-28T01:14:35.096Z,9.99
2023-12-28T01:17:03.455Z,10.01
2023-12-28T01:19:33.147Z,10.03
2023-12-28T01:22:01.395Z,10.04
2023-12-28T01:24:29.684Z,10.05
2023-12-28T01:26:57.948Z,10.07
2023-12-28T01:29:26.180Z,10.08
2023-12-28T01:31:54.495Z,10.10
2023-12-28T01:34:23.396Z,10.11
2023-12-28T01:36:53.690Z,10.12
2023-12-28T01:39:22.179Z,10.15
2023-12-28T01:41:50.819Z,10.15
2023-12-28T01:44:19.220Z,10.17
2023-12-28T01:46:48.296Z,10.18
2023-12-28T01:49:16.786Z,10.19
2023-12-28T01:51:47.143Z,10.19
2023-12-28T01:54:17.739Z,10.21
2023-12-28T01:56:46.832Z,10.21
2023-12-28T01:59:15.312Z,10.22
2023-12-28T02:01:43.900Z,10.22
2023-12-28T02:04:12.688Z,10.22
2023-12-28T02:06:41.358Z,10.22
2023-12-28T02:09:09.655Z,10.23
2023-12-28T02:11:39.285Z,10.24
2023-12-28T02:14:07.688Z,10.24
2023-12-28T02:16:41.033Z,10.25
2023-12-28T02:19:19.926Z,10.25
2023-12-28T02:21:49.878Z,10.25
2023-12-28T02:24:18.323Z,10.26
2023-12-28T02:26:47.946Z,10.26
2023-12-28T02:29:17.508Z,10.25
2023-12-28T02:31:52.159Z,10.26
2023-12-28T02:34:23.888Z,10.28
2023-12-28T02:36:53.758Z,10.27
2023-12-28T02:39:24.444Z,10.29
2023-12-28T02:41:56.150Z,10.29
2023-12-28T02:44:25.610Z,10.30
2023-12-28T02:46:53.874Z,10.31
2023-12-28T02:49:22.334Z,10.31
2023-12-28T02:51:51.886Z,10.32
2023-12-28T02:54:20.768Z,10.32
2023-12-28T02:56:49.308Z,10.33
2023-12-28T02:59:19.026Z,10.35
2023-12-28T03:01:47.341Z,10.35
2023-12-28T03:04:16.476Z,10.37
2023-12-28T03:06:48.992Z,10.38
2023-12-28T03:09:17.469Z,10.39
2023-12-28T03:11:45.722Z,10.40
2023-12-28T03:14:14.430Z,10.41
2023-12-28T03:16:44.222Z,10.41
2023-12-28T03:19:12.725Z,10.41
2023-12-28T03:21:42.242Z,10.42
2023-12-28T03:24:10.660Z,10.42
2023-12-28T03:26:40.515Z,10.42
2023-12-28T03:29:09.739Z,10.44
2023-12-28T03:31:41.521Z,10.44
2023-12-28T03:34:11.687Z,10.45
2023-12-28T03:36:40.140Z,10.46
2023-12-28T03:39:08.593Z,10.47
2023-12-28T03:41:36.958Z,10.47
2023-12-28T03:44:05.644Z,10.47
2023-12-28T03:46:34.153Z,10.49
2023-12-28T03:49:02.662Z,10.49
2023-12-28T03:51:32.524Z,10.50
2023-12-28T03:54:00.909Z,10.50
2023-12-28T03:56:31.278Z,10.51
2023-12-28T03:58:59.539Z,10.51
2023-12-28T04:01:27.854Z,10.52
2023-12-28T04:03:56.206Z,10.53
2023-12-28T04:06:24.625Z,10.53
2023-12-28T04:08:54.307Z,10.53
2023-12-28T04:11:22.612Z,10.53
2023-12-28T04:13:50.862Z,10.56
2023-12-28T04:16:19.154Z,10.56
2023-12-28T04:18:47.567Z,10.56
2023-12-28T04:21:16.132Z,10.56
2023-12-28T04:23:44.445Z,10.57
2023-12-28T04:26:14.205Z,10.58
2023-12-28T04:28:42.482Z,10.57
2023-12-28T04:31:10.861Z,10.58
2023-12-28T04:33:39.452Z,10.57
2023-12-28T04:36:08.436Z,10.58
2023-12-28T04:38:36.713Z,10.60
2023-12-28T04:41:05.723Z,10.61
2023-12-28T04:43:35.321Z,10.61
2023-12-28T04:46:05.905Z,10.61
2023-12-28T04:48:34.697Z,10.61
2023-12-28T04:51:05.107Z,10.60
2023-12-28T04:53:34.835Z,10.62
2023-12-28T04:56:03.413Z,10.62
2023-12-28T04:58:31.771Z,10.62
2023-12-28T05:01:03.789Z,10.63
2023-12-28T05:03:32.257Z,10.63
2023-12-28T05:06:00.569Z,10.62
2023-12-28T05:08:28.927Z,10.63
2023-12-28T05:10:57.397Z,10.62
2023-12-28T05:13:25.754Z,10.62
2023-12-28T05:15:54.085Z,10.62
2023-12-28T05:18:23.924Z,10.61
2023-12-28T05:20:52.406Z,10.61
2023-12-28T05:23:20.688Z,10.61
2023-12-28T05:25:49.308Z,10.63
2023-12-28T05:28:17.563Z,10.63
2023-12-28T05:30:46.080Z,10.63
2023-12-28T05:33:14.448Z,10.64
2023-12-28T05:35:44.147Z,10.64
2023-12-28T05:38:12.564Z,10.64
2023-12-28T05:40:40.808Z,10.65
2023-12-28T05:43:09.152Z,10.65
2023-12-28T05:45:37.448Z,10.64
2023-12-28T05:48:06.665Z,10.65
2023-12-28T05:50:35.025Z,10.65
2023-12-28T05:53:04.946Z,10.64
2023-12-28T05:55:33.682Z,10.65
2023-12-28T05:58:02.302Z,10.64
2023-12-28T06:00:30.840Z,10.66
2023-12-28T06:02:59.629Z,10.64
2023-12-28T06:05:28.067Z,10.64
2023-12-28T06:07:56.522Z,10.64
2023-12-28T06:10:26.258Z,10.65
2023-12-28T06:12:54.694Z,10.65
2023-12-28T06:15:23.132Z,10.65
2023-12-28T06:17:51.616Z,10.65
2023-12-28T06:20:20.418Z,10.66
2023-12-28T06:22:50.101Z,10.66
2023-12-28T06:25:18.472Z,10.66
2023-12-28T06:27:48.138Z,10.67
2023-12-28T06:30:16.847Z,10.66
2023-12-28T06:32:45.299Z,10.67
2023-12-28T06:35:13.565Z,10.66
2023-12-28T06:37:41.817Z,10.66
2023-12-28T06:40:11.167Z,10.66
2023-12-28T06:42:39.519Z,10.67
2023-12-28T06:45:10.028Z,10.66
2023-12-28T06:47:38.775Z,10.67
2023-12-28T06:50:08.400Z,10.67
2023-12-28T06:52:36.708Z,10.67
2023-12-28T06:55:05.442Z,10.67
2023-12-28T06:57:33.971Z,10.66
2023-12-28T07:00:04.009Z,10.66
2023-12-28T07:02:33.710Z,10.68
2023-12-28T07:05:02.020Z,10.67
2023-12-28T07:07:30.388Z,10.67
2023-12-28T07:09:58.997Z,10.67
2023-12-28T07:12:27.393Z,10.69
2023-12-28T07:14:55.679Z,10.68
2023-12-28T07:17:24.011Z,10.69
2023-12-28T07:19:53.837Z,10.69
2023-12-28T07:22:22.356Z,10.69
2023-12-28T07:24:50.661Z,10.70
2023-12-28T07:27:19.112Z,10.72
2023-12-28T07:29:47.437Z,10.72
2023-12-28T07:32:16.315Z,10.72
2023-12-28T07:34:44.597Z,10.72
2023-12-28T07:37:14.260Z,10.73
2023-12-28T07:39:42.534Z,10.74
2023-12-28T07:42:10.882Z,10.75
2023-12-28T07:44:39.151Z,10.76
2023-12-28T07:47:09.800Z,10.75
2023-12-28T07:49:38.656Z,10.75
2023-12-28T07:52:07.580Z,10.75
2023-12-28T07:54:37.316Z,10.75
2023-12-28T07:57:06.278Z,10.74
2023-12-28T07:59:34.572Z,10.74
2023-12-28T08:02:02.814Z,10.75
2023-12-28T08:04:31.295Z,10.75
2023-12-28T08:06:59.726Z,10.75
2023-12-28T08:09:28.115Z,10.76
2023-12-28T08:11:57.786Z,10.76
2023-12-28T08:14:26.108Z,10.77
2023-12-28T08:16:54.596Z,10.77
2023-12-28T08:19:22.948Z,10.78
2023-12-28T08:21:51.332Z,10.79
2023-12-28T08:24:19.745Z,10.78
2023-12-28T08:26:48.127Z,10.78
2023-12-28T08:29:19.075Z,10.79
2023-12-28T08:31:48.383Z,10.79
2023-12-28T08:34:17.471Z,10.79
2023-12-28T08:36:45.981Z,10.80
2023-12-28T08:39:14.246Z,10.81
2023-12-28T08:41:42.517Z,10.82
2023-12-28T08:44:10.953Z,10.83
2023-12-28T08:46:40.566Z,10.83
2023-12-28T08:49:08.970Z,10.84
2023-12-28T08:51:37.338Z,10.84
2023-12-28T08:54:05.675Z,10.85
2023-12-28T08:56:33.963Z,10.85
2023-12-28T08:59:04.613Z,10.87
2023-12-28T09:01:33.271Z,10.88
2023-12-28T09:04:03.186Z,10.88
2023-12-28T09:06:31.542Z,10.90
2023-12-28T09:09:00.019Z,10.90
2023-12-28T09:11:29.795Z,10.91
2023-12-28T09:13:58.118Z,10.93
2023-12-28T09:16:26.298Z,10.93
2023-12-28T09:18:54.702Z,10.93
2023-12-28T09:21:24.528Z,10.95
2023-12-28T09:23:52.806Z,10.95
2023-12-28T09:26:21.122Z,10.97
2023-12-28T09:28:49.376Z,10.97
2023-12-28T09:31:17.790Z,10.99
2023-12-28T09:33:46.235Z,11.00
2023-12-28T09:36:14.700Z,11.02
2023-12-28T09:38:44.343Z,11.02
2023-12-28T09:41:15.235Z,11.06
2023-12-28T09:43:51.128Z,11.07
2023-12-28T09:46:19.523Z,11.08
2023-12-28T09:48:48.332Z,11.10
2023-12-28T09:51:18.956Z,11.10
2023-12-28T09:53:48.835Z,11.12
2023-12-28T09:56:18.319Z,11.12
2023-12-28T09:58:49.844Z,11.14
2023-12-28T10:01:19.336Z,11.16
2023-12-28T10:03:47.792Z,11.18
2023-12-28T10:06:16.500Z,11.18
2023-12-28T10:08:50.524Z,11.20
2023-12-28T10:11:20.134Z,11.21
2023-12-28T10:13:50.314Z,11.23
2023-12-28T10:16:19.004Z,11.24
2023-12-28T10:18:47.573Z,11.27
2023-12-28T10:21:16.132Z,11.27
2023-12-28T10:23:44.659Z,11.28
2023-12-28T10:26:14.287Z,11.30
2023-12-28T10:28:43.695Z,11.31
2023-12-28T10:31:13.116Z,11.31
2023-12-28T10:33:42.480Z,11.31
2023-12-28T10:36:11.751Z,11.32
2023-12-28T10:38:40.512Z,11.34
2023-12-28T10:41:09.908Z,11.36
2023-12-28T10:43:47.544Z,11.38
2023-12-28T10:46:28.118Z,11.40
2023-12-28T10:49:01.410Z,11.42
2023-12-28T10:51:30.839Z,11.47
2023-12-28T10:54:13.778Z,11.48
2023-12-28T10:56:48.570Z,11.50
2023-12-28T10:59:25.686Z,11.52
2023-12-28T11:01:58.523Z,11.54
2023-12-28T11:04:42.339Z,11.57
2023-12-28T11:07:12.567Z,11.58
2023-12-28T11:09:43.957Z,11.60
2023-12-28T11:12:13.060Z,11.61
2023-12-28T11:14:44.200Z,11.63
2023-12-28T11:17:12.952Z,11.66
2023-12-28T11:19:42.384Z,11.67
2023-12-28T11:22:11.028Z,11.69
2023-12-28T11:24:39.656Z,11.71
2023-12-28T11:27:11.112Z,11.71
2023-12-28T11:29:40.103Z,11.72
2023-12-28T11:32:10.973Z,11.75
2023-12-28T11:34:39.540Z,11.76
2023-12-28T11:37:11.556Z,11.78
2023-12-28T11:39:41.298Z,11.79
2023-12-28T11:42:10.299Z,11.82
2023-12-28T11:44:45.077Z,11.82
2023-12-28T11:47:15.564Z,11.82
2023-12-28T11:49:47.014Z,11.85
2023-12-28T11:52:25.274Z,11.86
2023-12-28T11:54:54.375Z,11.87
2023-12-28T11:57:22.985Z,11.90
2023-12-28T11:59:55.824Z,11.90
2023-12-28T12:02:26.300Z,11.91
2023-12-28T12:04:56.438Z,11.93
2023-12-28T12:07:26.222Z,11.94
2023-12-28T12:09:58.056Z,11.95
2023-12-28T12:12:27.048Z,11.97
2023-12-28T12:14:56.273Z,11.99
2023-12-28T12:17:26.743Z,11.99
2023-12-28T12:19:56.746Z,12.00
2023-12-28T12:22:28.974Z,11.99
2023-12-28T12:25:00.226Z,12.00
2023-12-28T12:27:28.710Z,11.99
2023-12-28T12:29:57.110Z,11.98
2023-12-28T12:32:27.259Z,11.98
2023-12-28T12:34:56.297Z,11.98
2023-12-28T12:37:25.240Z,11.99
2023-12-28T12:39:55.268Z,11.99
2023-12-28T12:42:23.716Z,12.00
2023-12-28T12:44:52.072Z,11.99
2023-12-28T12:47:20.381Z,11.99
2023-12-28T12:49:50.936Z,12.01
2023-12-28T12:52:19.308Z,12.02
2023-12-28T12:54:55.640Z,12.03
2023-12-28T12:57:24.180Z,12.03
2023-12-28T12:59:52.721Z,12.03
2023-12-28T13:02:21.246Z,12.04
2023-12-28T13:04:53.668Z,12.04
2023-12-28T13:07:22.174Z,12.03
2023-12-28T13:09:50.482Z,12.05
2023-12-28T13:12:19.049Z,12.04
2023-12-28T13:14:47.411Z,12.04
2023-12-28T13:17:15.729Z,12.05
2023-12-28T13:19:44.323Z,12.05
2023-12-28T13:22:14.153Z,12.05
2023-12-28T13:24:43.579Z,12.06
2023-12-28T13:27:11.818Z,12.05
2023-12-28T13:29:40.268Z,12.06
2023-12-28T13:32:08.781Z,12.04
2023-12-28T13:34:37.075Z,12.04
2023-12-28T13:37:06.030Z,12.04
2023-12-28T13:39:39.802Z,12.04
2023-12-28T13:42:09.133Z,12.04
2023-12-28T13:44:37.549Z,12.04
2023-12-28T13:47:08.521Z,12.04
2023-12-28T13:49:37.629Z,12.03
2023-12-28T13:52:06.397Z,12.02
2023-12-28T13:54:36.035Z,12.02
2023-12-28T13:57:04.500Z,12.01
2023-12-28T13:59:33.103Z,12.01
2023-12-28T14:02:01.415Z,12.00
2023-12-28T14:04:29.917Z,12.01
2023-12-28T14:06:58.445Z,12.01
2023-12-28T14:09:26.803Z,12.00
2023-12-28T14:11:56.463Z,12.00
2023-12-28T14:14:24.758Z,11.99
2023-12-28T14:16:53.076Z,11.98
2023-12-28T14:19:21.433Z,11.98
2023-12-28T14:21:50.448Z,11.98
2023-12-28T14:24:19.824Z,11.96
2023-12-28T14:26:48.860Z,11.96
2023-12-28T14:29:18.162Z,11.97
2023-12-28T14:31:47.549Z,11.94
2023-12-28T14:34:16.956Z,11.94
2023-12-28T14:36:50.895Z,11.94
2023-12-28T14:39:20.563Z,11.92
2023-12-28T14:41:49.026Z,11.91
2023-12-28T14:44:18.763Z,11.90
2023-12-28T14:46:47.054Z,11.90
2023-12-28T14:49:15.513Z,11.90
2023-12-28T14:51:43.956Z,11.89
2023-12-28T14:54:12.309Z,11.89
2023-12-28T14:56:45.692Z,11.89
2023-12-28T14:59:21.385Z,11.88
2023-12-28T15:01:51.482Z,11.86
2023-12-28T15:04:21.668Z,11.85
2023-12-28T15:06:51.837Z,11.84
2023-12-28T15:09:20.317Z,11.82
2023-12-28T15:11:49.726Z,11.81
2023-12-28T15:14:18.922Z,11.81
2023-12-28T15:16:49.572Z,11.81
2023-12-28T15:19:18.420Z,11.79
2023-12-28T15:21:47.475Z,11.78
2023-12-28T15:24:16.589Z,11.77
2023-12-28T15:26:44.946Z,11.75
2023-12-28T15:29:14.185Z,11.74
2023-12-28T15:31:42.585Z,11.71
2023-12-28T15:34:12.531Z,11.70
2023-12-28T15:36:41.769Z,11.68
2023-12-28T15:39:10.065Z,11.68
2023-12-28T15:41:38.314Z,11.65
2023-12-28T15:44:07.011Z,11.64
2023-12-28T15:46:35.917Z,11.62
2023-12-28T15:49:05.048Z,11.61
2023-12-28T15:51:35.027Z,11.59
2023-12-28T15:54:04.536Z,11.59
2023-12-28T15:56:33.423Z,11.58
2023-12-28T15:59:02.149Z,11.58
2023-12-28T16:01:30.826Z,11.58
2023-12-28T16:03:59.590Z,11.58
2023-12-28T16:06:28.682Z,11.58
2023-12-28T16:08:59.676Z,11.58
2023-12-28T16:11:28.836Z,11.59
2023-12-28T16:13:58.551Z,11.59
2023-12-28T16:16:28.165Z,11.59
2023-12-28T16:18:57.776Z,11.58
2023-12-28T16:21:26.912Z,11.58
2023-12-28T16:23:56.191Z,11.59
2023-12-28T16:26:26.715Z,11.59
2023-12-28T16:28:55.806Z,11.60
2023-12-28T16:31:24.403Z,11.60
2023-12-28T16:33:53.048Z,11.61
2023-12-28T16:36:21.722Z,11.61
2023-12-28T16:38:51.927Z,11.60
2023-12-28T16:41:21.190Z,11.61
2023-12-28T16:43:52.635Z,11.61
2023-12-28T16:46:21.125Z,11.60
2023-12-28T16:48:50.207Z,11.60
2023-12-28T16:51:19.795Z,11.60
2023-12-28T16:53:48.647Z,11.58
2023-12-28T16:56:17.805Z,11.57
2023-12-28T16:58:46.323Z,11.58
2023-12-28T17:01:16.563Z,11.57
2023-12-28T17:03:45.041Z,11.57
2023-12-28T17:06:13.920Z,11.57
2023-12-28T17:08:42.701Z,11.58
2023-12-28T17:11:13.806Z,11.59
2023-12-28T17:13:42.726Z,11.57
2023-12-28T17:16:12.048Z,11.56
2023-12-28T17:18:42.499Z,11.57
2023-12-28T17:21:15.456Z,11.57
2023-12-28T17:23:49.560Z,11.55
2023-12-28T17:26:26.149Z,11.56
2023-12-28T17:29:01.128Z,11.57
2023-12-28T17:31:31.140Z,11.56
2023-12-28T17:34:04.477Z,11.55
2023-12-28T17:36:35.325Z,11.55
2023-12-28T17:39:08.102Z,11.53
2023-12-28T17:41:40.387Z,11.53
2023-12-28T17:44:10.525Z,11.52
2023-12-28T17:46:49.141Z,11.52
2023-12-28T17:49:27.812Z,11.51
2023-12-28T17:51:57.728Z,11.50
2023-12-28T17:54:27.768Z,11.49
2023-12-28T17:56:56.682Z,11.48
2023-12-28T17:59:29.820Z,11.47
2023-12-28T18:02:00.778Z,11.46
2023-12-28T18:04:31.431Z,11.46
2023-12-28T18:07:00.026Z,11.46
2023-12-28T18:09:29.061Z,11.45
2023-12-28T18:11:57.886Z,11.44
2023-12-28T18:14:26.638Z,11.44
2023-12-28T18:16:56.406Z,11.43
2023-12-28T18:19:25.063Z,11.42
2023-12-28T18:21:54.999Z,11.42
2023-12-28T18:24:24.192Z,11.39
2023-12-28T18:26:52.648Z,11.40
2023-12-28T18:29:21.001Z,11.40
2023-12-28T18:31:49.366Z,11.39
2023-12-28T18:34:18.075Z,11.39
2023-12-28T18:36:46.859Z,11.38
2023-12-28T18:39:17.761Z,11.36
2023-12-28T18:41:47.351Z,11.36
2023-12-28T18:44:17.785Z,11.36
2023-12-28T18:46:47.190Z,11.36
2023-12-28T18:49:17.029Z,11.35
2023-12-28T18:51:46.433Z,11.35
2023-12-28T18:54:18.674Z,11.34
2023-12-28T18:56:49.732Z,11.35
2023-12-28T18:59:21.545Z,11.35
2023-12-28T19:01:52.245Z,11.36
2023-12-28T19:04:21.026Z,11.36
2023-12-28T19:06:54.012Z,11.37
2023-12-28T19:09:24.871Z,11.36
2023-12-28T19:11:57.428Z,11.35
2023-12-28T19:14:27.899Z,11.36
2023-12-28T19:17:08.367Z,11.35
2023-12-28T19:19:39.953Z,11.34
2023-12-28T19:22:08.584Z,11.34
2023-12-28T19:24:40.657Z,11.34
2023-12-28T19:27:12.979Z,11.33
2023-12-28T19:29:45.339Z,11.34
2023-12-28T19:32:16.637Z,11.35
2023-12-28T19:34:45.968Z,11.34
2023-12-28T19:37:16.425Z,11.34
2023-12-28T19:39:51.017Z,11.33
2023-12-28T19:42:22.100Z,11.33
2023-12-28T19:44:52.938Z,11.32
2023-12-28T19:47:22.338Z,11.33
2023-12-28T19:49:54.214Z,11.34
2023-12-28T19:52:24.747Z,11.32
2023-12-28T19:55:01.463Z,11.32
2023-12-28T19:57:31.895Z,11.32
2023-12-28T20:00:02.264Z,11.31
2023-12-28T20:02:36.433Z,11.31
2023-12-28T20:05:12.236Z,11.30
2023-12-28T20:07:45.164Z,11.29
2023-12-28T20:10:20.070Z,11.30
2023-12-28T20:12:51.557Z,11.28
2023-12-28T20:15:25.201Z,11.28
2023-12-28T20:18:01.867Z,11.26
2023-12-28T20:20:33.394Z,11.25
2023-12-28T20:23:06.521Z,11.24
2023-12-28T20:25:39.192Z,11.24
2023-12-28T20:28:08.461Z,11.24
2023-12-28T20:30:37.554Z,11.23
2023-12-28T20:33:08.774Z,11.22
2023-12-28T20:35:39.743Z,11.23
2023-12-28T20:38:10.167Z,11.21
2023-12-28T20:40:43.639Z,11.21
2023-12-28T20:43:12.616Z,11.20
2023-12-28T20:45:41.418Z,11.20
2023-12-28T20:48:10.779Z,11.21
2023-12-28T20:50:42.527Z,11.21
2023-12-28T20:53:15.657Z,11.21
2023-12-28T20:55:47.349Z,11.21
2023-12-28T20:58:16.144Z,11.19
2023-12-28T21:00:45.749Z,11.20
2023-12-28T21:03:16.415Z,11.21
2023-12-28T21:05:46.276Z,11.21
2023-12-28T21:08:15.044Z,11.19
2023-12-28T21:10:48.443Z,11.20
2023-12-28T21:13:22.736Z,11.20
2023-12-28T21:15:52.511Z,11.20
2023-12-28T21:18:30.087Z,11.19
2023-12-28T21:21:09.906Z,11.20
2023-12-28T21:23:41.706Z,11.20
2023-12-28T21:26:12.740Z,11.20
2023-12-28T21:28:45.001Z,11.20
2023-12-28T21:31:14.680Z,11.20
2023-12-28T21:33:44.652Z,11.20
2023-12-28T21:36:15.203Z,11.20
2023-12-28T21:38:46.359Z,11.19
2023-12-28T21:41:22.544Z,11.20
2023-12-28T21:43:52.471Z,11.19
2023-12-28T21:46:23.543Z,11.19
2023-12-28T21:48:53.138Z,11.19
2023-12-28T21:51:23.326Z,11.18
2023-12-28T21:53:53.505Z,11.18
2023-12-28T21:56:23.560Z,11.17
2023-12-28T21:58:54.100Z,11.17
2023-12-28T22:01:22.693Z,11.18
2023-12-28T22:03:53.542Z,11.19
2023-12-28T22:06:25.965Z,11.19
2023-12-28T22:08:56.304Z,11.21
2023-12-28T22:11:26.053Z,11.22
2023-12-28T22:13:55.592Z,11.23
2023-12-28T22:16:27.543Z,11.24
2023-12-28T22:18:56.912Z,11.25
2023-12-28T22:21:27.024Z,11.25
2023-12-28T22:23:55.930Z,11.26
2023-12-28T22:26:24.665Z,11.27
2023-12-28T22:28:56.189Z,11.27
2023-12-28T22:31:25.293Z,11.28
2023-12-28T22:33:53.964Z,11.29
2023-12-28T22:36:22.767Z,11.29
2023-12-28T22:38:53.083Z,11.31
2023-12-28T22:41:23.559Z,11.31
2023-12-28T22:43:52.463Z,11.31
2023-12-28T22:46:24.071Z,11.32
2023-12-28T22:48:55.204Z,11.32
2023-12-28T22:51:27.584Z,11.32
2023-12-28T22:53:57.574Z,11.31
2023-12-28T22:56:28.821Z,11.34
2023-12-28T22:58:58.664Z,11.33
2023-12-28T23:01:30.045Z,11.34
2023-12-28T23:04:00.205Z,11.34
2023-12-28T23:06:29.192Z,11.35
2023-12-28T23:09:05.025Z,11.36
2023-12-28T23:11:35.626Z,11.35
2023-12-28T23:14:05.641Z,11.35
2023-12-28T23:16:37.432Z,11.36
2023-12-28T23:19:07.590Z,11.36
2023-12-28T23:21:37.518Z,11.37
2023-12-28T23:24:09.401Z,11.36
2023-12-28T23:26:50.255Z,11.36
2023-12-28T23:29:22.051Z,11.37
2023-12-28T23:31:52.199Z,11.37
2023-12-28T23:34:26.036Z,11.36
2023-12-28T23:37:02.413Z,11.37
2023-12-28T23:39:31.602Z,11.38
2023-12-28T23:42:01.204Z,11.38
2023-12-28T23:44:29.840Z,11.38
2023-12-28T23:46:59.653Z,11.38
2023-12-28T23:49:28.567Z,11.40
2023-12-28T23:51:56.938Z,11.39
2023-12-28T23:54:28.365Z,11.39
2023-12-28T23:57:00.067Z,11.39
2023-12-28T23:59:30.245Z,11.39
